createdAt,value
2023-01-07T00:01:31.810Z,8.97
2023-01-07T00:04:01.682Z,10.20
2023-01-07T00:06:32.741Z,9.17
2023-01-07T00:09:01.801Z,10.20
2023-01-07T00:11:31.497Z,9.37
2023-01-07T00:14:01.572Z,6.90
2023-01-07T00:16:32.609Z,9.73
2023-01-07T00:19:02.795Z,9.90
2023-01-07T00:21:31.984Z,9.33
2023-01-07T00:24:02.398Z,12.03
2023-01-07T00:26:32.840Z,10.80
2023-01-07T00:29:01.459Z,11.70
2023-01-07T00:31:33.055Z,12.43
2023-01-07T00:34:09.312Z,10.23
2023-01-07T00:36:40.764Z,15.33
2023-01-07T00:39:11.605Z,9.33
2023-01-07T00:41:40.146Z,8.27
2023-01-07T00:44:09.566Z,11.40
2023-01-07T00:46:39.355Z,11.03
2023-01-07T00:49:07.867Z,9.57
2023-01-07T00:51:36.223Z,9.32
2023-01-07T00:54:04.663Z,10.53
2023-01-07T00:56:33.692Z,8.30
2023-01-07T00:59:02.132Z,9.30
2023-01-07T01:01:30.652Z,9.10
2023-01-07T01:04:00.586Z,10.33
2023-01-07T01:06:29.053Z,8.77
2023-01-07T01:08:57.442Z,8.60
2023-01-07T01:11:25.824Z,8.30
2023-01-07T01:13:54.226Z,9.03
2023-01-07T01:16:22.719Z,7.00
2023-01-07T01:18:51.101Z,9.03
2023-01-07T01:21:20.893Z,9.97
2023-01-07T01:23:49.304Z,7.73
2023-01-07T01:26:18.620Z,8.63
2023-01-07T01:28:47.235Z,7.43
2023-01-07T01:31:15.729Z,9.43
2023-01-07T01:33:44.112Z,7.13
2023-01-07T01:36:13.575Z,7.97
2023-01-07T01:38:43.444Z,10.70
2023-01-07T01:41:13.778Z,6.93
2023-01-07T01:43:44.512Z,8.57
2023-01-07T01:46:16.022Z,6.73
2023-01-07T01:48:48.938Z,9.00
2023-01-07T01:51:20.833Z,8.03
2023-01-07T01:53:51.283Z,7.80
2023-01-07T01:56:22.257Z,8.93
2023-01-07T01:58:54.857Z,10.40
2023-01-07T02:01:23.453Z,11.17
2023-01-07T02:03:52.815Z,6.33
2023-01-07T02:06:25.308Z,8.37
2023-01-07T02:08:55.085Z,8.53
2023-01-07T02:11:32.522Z,8.20
2023-01-07T02:14:11.386Z,7.47
2023-01-07T02:16:49.069Z,6.50
2023-01-07T02:19:48.701Z,7.80
2023-01-07T02:22:27.247Z,7.57
2023-01-07T02:25:26.830Z,7.30
2023-01-07T02:28:29.834Z,9.33
2023-01-07T02:31:27.881Z,6.90
2023-01-07T02:34:03.664Z,7.57
2023-01-07T02:36:48.679Z,7.00
2023-01-07T02:39:33.508Z,6.67
2023-01-07T02:42:09.225Z,7.80
2023-01-07T02:44:43.840Z,6.50
2023-01-07T02:47:18.550Z,8.20
2023-01-07T02:49:49.868Z,5.57
2023-01-07T02:52:20.667Z,7.57
2023-01-07T02:54:55.370Z,7.10
2023-01-07T02:58:02.985Z,8.03
2023-01-07T03:00:59.279Z,7.47
2023-01-07T03:03:45.342Z,7.23
2023-01-07T03:06:32.418Z,7.10
2023-01-07T03:09:08.732Z,6.60
2023-01-07T03:11:43.611Z,9.00
2023-01-07T03:14:19.235Z,7.73
2023-01-07T03:16:54.592Z,7.30
2023-01-07T03:19:29.488Z,8.50
2023-01-07T03:22:01.439Z,8.03
2023-01-07T03:24:31.813Z,6.27
2023-01-07T03:27:04.320Z,8.83
2023-01-07T03:29:33.304Z,8.90
2023-01-07T03:32:08.474Z,9.87
2023-01-07T03:34:38.395Z,7.10
2023-01-07T03:37:13.698Z,8.23
2023-01-07T03:39:43.260Z,8.97
2023-01-07T03:42:30.491Z,12.20
2023-01-07T03:44:59.873Z,9.23
2023-01-07T03:47:29.649Z,9.93
2023-01-07T03:49:58.001Z,8.73
2023-01-07T03:52:27.910Z,8.20
2023-01-07T03:54:56.279Z,9.10
2023-01-07T03:57:24.717Z,9.10
2023-01-07T03:59:53.199Z,9.97
2023-01-07T04:02:21.577Z,9.70
2023-01-07T04:04:50.056Z,9.47
2023-01-07T04:07:18.519Z,14.83
2023-01-07T04:09:49.702Z,13.47
2023-01-07T04:12:18.202Z,10.50
2023-01-07T04:14:46.567Z,9.27
2023-01-07T04:17:14.900Z,9.70
2023-01-07T04:19:43.336Z,8.80
2023-01-07T04:22:12.219Z,12.77
2023-01-07T04:24:40.580Z,11.33
2023-01-07T04:27:10.580Z,9.53
2023-01-07T04:29:38.987Z,10.13
2023-01-07T04:32:07.516Z,11.95
2023-01-07T04:34:35.961Z,10.60
2023-01-07T04:37:04.339Z,9.77
2023-01-07T04:39:32.689Z,14.90
2023-01-07T04:42:01.005Z,7.60
2023-01-07T04:44:30.872Z,10.30
2023-01-07T04:46:59.237Z,9.17
2023-01-07T04:49:27.581Z,9.23
2023-01-07T04:51:55.967Z,9.83
2023-01-07T04:54:24.347Z,11.63
2023-01-07T04:56:52.834Z,9.77
2023-01-07T04:59:21.376Z,11.57
2023-01-07T05:01:51.320Z,8.63
2023-01-07T05:04:20.074Z,11.53
2023-01-07T05:06:48.749Z,9.83
2023-01-07T05:09:17.230Z,10.60
2023-01-07T05:11:45.769Z,11.43
2023-01-07T05:14:14.595Z,15.17
2023-01-07T05:16:43.108Z,7.70
2023-01-07T05:19:13.182Z,7.77
2023-01-07T05:21:41.573Z,9.03
2023-01-07T05:24:10.058Z,9.10
2023-01-07T05:26:38.521Z,8.53
2023-01-07T05:29:07.090Z,11.20
2023-01-07T05:31:35.432Z,9.37
2023-01-07T05:34:03.857Z,7.77
2023-01-07T05:36:33.735Z,11.10
2023-01-07T05:39:02.180Z,14.60
2023-01-07T05:41:30.594Z,9.47
2023-01-07T05:43:59.065Z,13.95
2023-01-07T05:46:27.549Z,13.83
2023-01-07T05:48:56.049Z,16.87
2023-01-07T05:51:24.444Z,10.07
2023-01-07T05:53:54.224Z,10.47
2023-01-07T05:56:22.669Z,15.20
2023-01-07T05:58:51.124Z,13.03
2023-01-07T06:01:20.065Z,12.93
2023-01-07T06:03:48.513Z,11.77
2023-01-07T06:06:16.881Z,13.67
2023-01-07T06:08:45.176Z,13.83
2023-01-07T06:11:14.964Z,14.93
2023-01-07T06:13:43.378Z,12.63
2023-01-07T06:16:14.121Z,13.77
2023-01-07T06:18:42.535Z,18.10
2023-01-07T06:21:10.990Z,13.57
2023-01-07T06:23:39.286Z,14.63
2023-01-07T06:26:07.616Z,13.27
2023-01-07T06:28:37.251Z,12.50
2023-01-07T06:31:05.775Z,13.57
2023-01-07T06:33:34.149Z,14.93
2023-01-07T06:36:02.573Z,17.43
2023-01-07T06:38:30.910Z,17.30
2023-01-07T06:40:59.701Z,14.67
2023-01-07T06:43:28.233Z,15.00
2023-01-07T06:45:58.208Z,13.17
2023-01-07T06:48:26.654Z,15.20
2023-01-07T06:50:54.945Z,14.53
2023-01-07T06:53:23.348Z,17.40
2023-01-07T06:55:52.006Z,18.27
2023-01-07T06:58:20.572Z,16.37
2023-01-07T07:00:48.946Z,16.03
2023-01-07T07:03:18.768Z,15.20
2023-01-07T07:05:47.690Z,15.27
2023-01-07T07:08:16.121Z,12.93
2023-01-07T07:10:44.485Z,15.87
2023-01-07T07:13:12.887Z,16.87
2023-01-07T07:15:44.048Z,16.53
2023-01-07T07:18:12.487Z,14.90
2023-01-07T07:20:42.312Z,18.73
2023-01-07T07:23:10.902Z,18.23
2023-01-07T07:25:39.480Z,17.70
2023-01-07T07:28:10.391Z,17.40
2023-01-07T07:30:46.267Z,16.10
2023-01-07T07:33:19.364Z,17.53
2023-01-07T07:35:50.092Z,20.93
2023-01-07T07:38:19.185Z,21.07
2023-01-07T07:40:47.905Z,20.63
2023-01-07T07:43:16.624Z,20.33
2023-01-07T07:45:45.925Z,23.77
2023-01-07T07:48:15.725Z,22.55
2023-01-07T07:50:44.529Z,23.43
2023-01-07T07:53:15.340Z,20.20
2023-01-07T07:55:43.774Z,21.77
2023-01-07T07:58:12.270Z,18.47
2023-01-07T08:00:40.806Z,17.77
2023-01-07T08:03:09.547Z,17.33
2023-01-07T08:05:41.343Z,12.17
2023-01-07T08:08:11.502Z,16.33
2023-01-07T08:10:41.857Z,11.60
2023-01-07T08:13:11.117Z,9.93
2023-01-07T08:15:39.723Z,10.60
2023-01-07T08:18:09.871Z,10.17
2023-01-07T08:20:38.890Z,8.13
2023-01-07T08:23:09.052Z,10.70
2023-01-07T08:25:37.445Z,8.17
2023-01-07T08:28:07.422Z,8.90
2023-01-07T08:30:35.868Z,9.37
2023-01-07T08:33:09.214Z,9.40
2023-01-07T08:35:37.678Z,10.13
2023-01-07T08:38:07.493Z,8.37
2023-01-07T08:40:36.274Z,11.33
2023-01-07T08:43:08.047Z,8.47
2023-01-07T08:45:36.662Z,8.67
2023-01-07T08:48:05.973Z,8.17
2023-01-07T08:50:35.554Z,8.67
2023-01-07T08:53:04.000Z,10.20
2023-01-07T08:55:32.401Z,9.73
2023-01-07T08:58:00.819Z,11.53
2023-01-07T09:00:30.685Z,10.00
2023-01-07T09:02:59.187Z,11.00
2023-01-07T09:05:27.597Z,9.47
2023-01-07T09:07:56.942Z,8.82
2023-01-07T09:10:25.821Z,8.70
2023-01-07T09:12:54.235Z,8.97
2023-01-07T09:15:22.999Z,8.83
2023-01-07T09:17:52.772Z,9.47
2023-01-07T09:20:22.756Z,10.33
2023-01-07T09:22:51.120Z,8.07
2023-01-07T09:25:19.529Z,12.00
2023-01-07T09:27:47.785Z,12.50
2023-01-07T09:30:16.426Z,6.47
2023-01-07T09:32:45.254Z,9.50
2023-01-07T09:35:15.651Z,8.83
2023-01-07T09:37:43.909Z,9.33
2023-01-07T09:40:22.847Z,8.50
2023-01-07T09:42:58.231Z,10.00
2023-01-07T09:45:30.519Z,10.07
2023-01-07T09:48:01.085Z,9.37
2023-01-07T09:50:43.277Z,10.50
2023-01-07T09:53:16.427Z,5.97
2023-01-07T09:56:11.477Z,9.97
2023-01-07T09:58:36.429Z,10.13
2023-01-07T10:01:19.220Z,10.10
2023-01-07T10:03:55.745Z,7.63
2023-01-07T10:06:42.973Z,14.93
2023-01-07T10:09:23.061Z,9.30
2023-01-07T10:12:00.589Z,8.43
2023-01-07T10:14:44.994Z,9.27
2023-01-07T10:17:23.497Z,9.00
2023-01-07T10:20:00.211Z,9.43
2023-01-07T10:22:33.939Z,9.13
2023-01-07T10:25:06.040Z,9.57
2023-01-07T10:27:38.849Z,8.43
2023-01-07T10:30:13.366Z,8.77
2023-01-07T10:32:42.939Z,9.73
2023-01-07T10:35:18.624Z,11.87
2023-01-07T10:37:48.498Z,7.97
2023-01-07T10:40:32.200Z,14.17
2023-01-07T10:43:05.239Z,9.20
2023-01-07T10:45:58.479Z,9.67
2023-01-07T10:48:56.706Z,7.43
2023-01-07T10:51:55.975Z,7.57
2023-01-07T10:54:57.145Z,10.97
2023-01-07T10:57:28.348Z,8.07
2023-01-07T11:00:02.507Z,8.70
2023-01-07T11:02:31.384Z,8.87
2023-01-07T11:05:00.577Z,8.97
2023-01-07T11:07:40.386Z,10.27
2023-01-07T11:10:16.340Z,10.97
2023-01-07T11:12:47.621Z,8.93
2023-01-07T11:15:20.428Z,10.60
2023-01-07T11:17:58.328Z,8.57
2023-01-07T11:20:50.261Z,10.57
2023-01-07T11:23:30.995Z,9.20
2023-01-07T11:26:16.919Z,12.97
2023-01-07T11:28:52.698Z,11.47
2023-01-07T11:31:21.869Z,9.37
2023-01-07T11:34:03.175Z,11.67
2023-01-07T11:36:42.286Z,8.03
2023-01-07T11:39:13.077Z,7.97
2023-01-07T11:41:53.887Z,8.03
2023-01-07T11:44:22.571Z,10.07
2023-01-07T11:46:51.355Z,8.77
2023-01-07T11:49:26.270Z,8.83
2023-01-07T11:51:55.127Z,10.20
2023-01-07T11:54:25.909Z,8.47
2023-01-07T11:57:13.296Z,8.90
2023-01-07T11:59:41.672Z,7.70
2023-01-07T12:02:25.912Z,7.57
2023-01-07T12:05:14.274Z,8.43
2023-01-07T12:07:47.045Z,7.13
2023-01-07T12:10:35.868Z,9.43
2023-01-07T12:13:18.016Z,10.90
2023-01-07T12:15:53.261Z,10.17
2023-01-07T12:18:47.692Z,7.30
2023-01-07T12:21:36.144Z,8.77
2023-01-07T12:24:37.639Z,8.77
2023-01-07T12:27:16.889Z,9.60
2023-01-07T12:29:57.084Z,8.20
2023-01-07T12:32:40.893Z,7.60
2023-01-07T12:35:14.348Z,15.30
2023-01-07T12:37:49.181Z,9.37
2023-01-07T12:40:24.394Z,9.53
2023-01-07T12:42:58.007Z,8.83
2023-01-07T12:45:34.611Z,9.67
2023-01-07T12:48:07.472Z,11.17
2023-01-07T12:50:42.097Z,10.23
2023-01-07T12:53:16.793Z,6.23
2023-01-07T12:55:49.481Z,7.37
2023-01-07T12:58:25.677Z,9.27
2023-01-07T13:01:01.597Z,11.07
2023-01-07T13:03:39.816Z,9.07
2023-01-07T13:06:15.435Z,17.93
2023-01-07T13:08:48.445Z,16.30
2023-01-07T13:11:42.354Z,15.93
2023-01-07T13:14:18.846Z,9.50
2023-01-07T13:16:49.376Z,10.40
2023-01-07T13:19:17.992Z,11.23
2023-01-07T13:21:49.406Z,10.93
2023-01-07T13:24:56.075Z,9.10
2023-01-07T13:27:29.700Z,7.33
2023-01-07T13:30:10.094Z,12.00
2023-01-07T13:33:10.790Z,7.57
2023-01-07T13:36:03.372Z,11.73
2023-01-07T13:38:52.841Z,9.63
2023-01-07T13:41:34.126Z,10.35
2023-01-07T13:44:14.005Z,8.20
2023-01-07T13:46:45.801Z,10.20
2023-01-07T13:49:28.252Z,8.70
2023-01-07T13:51:56.978Z,6.88
2023-01-07T13:54:57.870Z,6.40
2023-01-07T13:57:51.090Z,7.43
2023-01-07T14:00:39.503Z,9.57
2023-01-07T14:03:50.505Z,7.10
2023-01-07T14:06:48.730Z,9.00
2023-01-07T14:09:34.761Z,8.65
2023-01-07T14:12:33.445Z,14.27
2023-01-07T14:15:33.416Z,12.25
2023-01-07T14:18:41.071Z,9.43
2023-01-07T14:21:23.508Z,10.35
2023-01-07T14:24:04.173Z,12.48
2023-01-07T14:26:40.122Z,10.97
2023-01-07T14:29:39.835Z,11.03
2023-01-07T14:32:31.602Z,8.93
2023-01-07T14:35:02.930Z,9.73
2023-01-07T14:37:35.217Z,10.90
2023-01-07T14:40:42.850Z,10.13
2023-01-07T14:43:48.328Z,12.23
2023-01-07T14:47:01.256Z,11.90
2023-01-07T14:49:57.054Z,10.57
2023-01-07T14:52:48.555Z,14.93
2023-01-07T14:55:54.850Z,11.63
2023-01-07T14:58:47.450Z,13.20
2023-01-07T15:01:51.532Z,14.20
2023-01-07T15:04:55.365Z,15.97
2023-01-07T15:07:27.153Z,23.47
2023-01-07T15:10:17.065Z,18.80
2023-01-07T15:13:09.528Z,17.70
2023-01-07T15:15:58.789Z,29.03
2023-01-07T15:18:27.415Z,33.53
2023-01-07T15:21:09.793Z,31.93
2023-01-07T15:23:44.735Z,29.97
2023-01-07T15:26:20.897Z,28.53
2023-01-07T15:28:56.925Z,26.23
2023-01-07T15:31:33.379Z,33.77
2023-01-07T15:34:10.699Z,25.97
2023-01-07T15:36:43.185Z,25.47
2023-01-07T15:39:21.262Z,27.37
2023-01-07T15:41:53.577Z,25.57
2023-01-07T15:44:29.109Z,28.47
2023-01-07T15:46:57.763Z,27.03
2023-01-07T15:49:26.943Z,29.70
2023-01-07T15:51:57.138Z,29.30
2023-01-07T15:54:32.065Z,44.77
2023-01-07T15:57:08.346Z,48.07
2023-01-07T15:59:40.625Z,46.47
2023-01-07T16:02:23.324Z,65.30
2023-01-07T16:04:53.997Z,71.10
2023-01-07T16:07:29.472Z,71.20
2023-01-07T16:09:58.822Z,61.27
2023-01-07T16:12:32.585Z,64.07
2023-01-07T16:15:04.704Z,57.67
2023-01-07T16:17:33.478Z,57.97
2023-01-07T16:20:21.214Z,59.97
2023-01-07T16:22:49.821Z,57.37
2023-01-07T16:25:27.669Z,65.17
2023-01-07T16:27:56.215Z,59.63
2023-01-07T16:30:26.132Z,56.30
2023-01-07T16:32:55.227Z,58.00
2023-01-07T16:35:29.572Z,67.20
2023-01-07T16:37:58.118Z,64.57
2023-01-07T16:40:32.344Z,70.95
2023-01-07T16:43:00.682Z,62.63
2023-01-07T16:45:32.555Z,65.80
2023-01-07T16:48:03.214Z,58.87
2023-01-07T16:50:39.464Z,53.87
2023-01-07T16:53:26.471Z,53.63
2023-01-07T16:56:08.192Z,55.77
2023-01-07T16:58:41.034Z,65.50
2023-01-07T17:01:12.392Z,70.23
2023-01-07T17:03:49.966Z,79.20
2023-01-07T17:06:23.006Z,75.33
2023-01-07T17:08:53.494Z,81.60
2023-01-07T17:11:26.637Z,95.77
2023-01-07T17:13:55.068Z,72.10
2023-01-07T17:16:30.626Z,72.80
2023-01-07T17:19:00.442Z,71.63
2023-01-07T17:21:40.245Z,93.80
2023-01-07T17:24:23.364Z,97.20
2023-01-07T17:26:52.733Z,98.97
2023-01-07T17:29:27.846Z,100.40
2023-01-07T17:31:57.701Z,94.37
2023-01-07T17:34:26.108Z,92.13
2023-01-07T17:36:54.481Z,100.97
2023-01-07T17:39:22.826Z,96.40
2023-01-07T17:42:08.605Z,104.67
2023-01-07T17:44:37.249Z,111.40
2023-01-07T17:47:11.788Z,98.67
2023-01-07T17:49:43.525Z,93.33
2023-01-07T17:52:12.589Z,95.77
2023-01-07T17:54:42.390Z,103.43
2023-01-07T17:57:13.180Z,99.63
2023-01-07T17:59:47.309Z,107.50
2023-01-07T18:02:20.565Z,109.97
2023-01-07T18:04:49.071Z,109.57
2023-01-07T18:07:17.462Z,104.37
2023-01-07T18:09:45.995Z,110.40
2023-01-07T18:12:33.305Z,109.77
2023-01-07T18:15:02.809Z,112.37
2023-01-07T18:17:34.458Z,97.07
2023-01-07T18:20:02.847Z,113.97
2023-01-07T18:22:31.170Z,90.50
2023-01-07T18:24:59.538Z,92.57
2023-01-07T18:27:27.907Z,104.83
2023-01-07T18:29:56.944Z,92.60
2023-01-07T18:32:25.320Z,94.87
2023-01-07T18:34:55.073Z,94.93
2023-01-07T18:37:23.545Z,95.60
2023-01-07T18:39:51.956Z,86.77
2023-01-07T18:42:20.465Z,94.73
2023-01-07T18:44:48.846Z,87.00
2023-01-07T18:47:17.291Z,83.40
2023-01-07T18:49:45.729Z,83.03
2023-01-07T18:52:15.970Z,74.70
2023-01-07T18:54:46.067Z,79.00
2023-01-07T18:57:15.482Z,77.50
2023-01-07T18:59:43.888Z,81.20
2023-01-07T19:02:17.143Z,71.00
2023-01-07T19:04:48.036Z,75.53
2023-01-07T19:07:18.583Z,77.67
2023-01-07T19:09:47.252Z,86.63
2023-01-07T19:12:15.667Z,84.73
2023-01-07T19:14:44.129Z,76.67
2023-01-07T19:17:12.628Z,62.87
2023-01-07T19:19:48.447Z,60.70
2023-01-07T19:22:20.263Z,60.17
2023-01-07T19:24:48.701Z,54.93
2023-01-07T19:27:17.096Z,78.93
2023-01-07T19:29:45.438Z,55.87
2023-01-07T19:32:13.768Z,54.30
2023-01-07T19:34:42.203Z,67.30
2023-01-07T19:37:10.593Z,50.63
2023-01-07T19:39:40.740Z,53.50
2023-01-07T19:42:09.961Z,54.57
2023-01-07T19:44:38.577Z,54.67
2023-01-07T19:47:07.001Z,52.83
2023-01-07T19:49:36.193Z,50.60
2023-01-07T19:52:04.682Z,52.47
2023-01-07T19:54:33.094Z,51.73
2023-01-07T19:57:02.851Z,54.10
2023-01-07T19:59:33.905Z,49.53
2023-01-07T20:02:02.957Z,47.47
2023-01-07T20:04:31.465Z,47.27
2023-01-07T20:06:59.837Z,48.20
2023-01-07T20:09:28.228Z,52.40
2023-01-07T20:11:56.722Z,59.63
2023-01-07T20:14:26.487Z,62.13
2023-01-07T20:16:54.897Z,54.97
2023-01-07T20:19:24.199Z,58.77
2023-01-07T20:21:52.525Z,50.40
2023-01-07T20:24:21.834Z,51.07
2023-01-07T20:26:50.216Z,57.97
2023-01-07T20:29:18.619Z,57.07
2023-01-07T20:31:48.427Z,50.67
2023-01-07T20:34:16.795Z,54.50
2023-01-07T20:36:45.142Z,53.47
2023-01-07T20:39:13.489Z,57.63
2023-01-07T20:41:43.208Z,59.47
2023-01-07T20:44:12.801Z,51.67
2023-01-07T20:46:41.552Z,51.97
2023-01-07T20:49:12.439Z,48.97
2023-01-07T20:51:40.922Z,50.47
2023-01-07T20:54:09.364Z,56.13
2023-01-07T20:56:37.684Z,57.30
2023-01-07T20:59:06.106Z,54.33
2023-01-07T21:01:34.605Z,51.33
2023-01-07T21:04:02.989Z,49.10
2023-01-07T21:06:32.916Z,49.10
2023-01-07T21:09:01.327Z,57.43
2023-01-07T21:11:29.626Z,62.10
2023-01-07T21:13:57.958Z,54.77
2023-01-07T21:16:27.601Z,63.03
2023-01-07T21:18:56.280Z,59.13
2023-01-07T21:21:25.842Z,68.50
2023-01-07T21:23:56.051Z,77.83
2023-01-07T21:26:24.977Z,66.20
2023-01-07T21:28:56.044Z,63.60
2023-01-07T21:31:25.381Z,68.57
2023-01-07T21:33:56.770Z,60.70
2023-01-07T21:36:26.297Z,67.13
2023-01-07T21:38:57.503Z,50.77
2023-01-07T21:41:26.816Z,55.17
2023-01-07T21:43:55.918Z,55.77
2023-01-07T21:46:24.310Z,55.07
2023-01-07T21:48:53.059Z,55.27
2023-01-07T21:51:23.430Z,48.57
2023-01-07T21:53:55.723Z,59.20
2023-01-07T21:56:27.324Z,54.17
2023-01-07T21:58:55.755Z,58.58
2023-01-07T22:01:28.615Z,52.27
2023-01-07T22:03:58.861Z,54.73
2023-01-07T22:06:29.032Z,63.93
2023-01-07T22:08:58.992Z,60.67
2023-01-07T22:11:29.327Z,57.00
2023-01-07T22:14:00.124Z,60.37
2023-01-07T22:16:30.787Z,60.87
2023-01-07T22:18:59.522Z,73.17
2023-01-07T22:21:29.530Z,64.23
2023-01-07T22:23:57.949Z,76.55
2023-01-07T22:26:26.346Z,67.17
2023-01-07T22:28:57.415Z,73.63
2023-01-07T22:31:27.927Z,66.03
2023-01-07T22:33:56.587Z,68.83
2023-01-07T22:36:29.935Z,66.57
2023-01-07T22:39:01.492Z,56.97
2023-01-07T22:41:33.124Z,61.87
2023-01-07T22:44:06.430Z,58.10
2023-01-07T22:46:35.351Z,58.67
2023-01-07T22:49:03.849Z,57.97
2023-01-07T22:51:38.744Z,60.70
2023-01-07T22:54:08.535Z,58.83
2023-01-07T22:56:36.972Z,63.37
2023-01-07T22:59:08.827Z,57.38
2023-01-07T23:01:38.030Z,49.30
2023-01-07T23:04:06.666Z,48.57
2023-01-07T23:06:35.321Z,46.97
2023-01-07T23:09:04.676Z,48.10
2023-01-07T23:11:52.035Z,45.33
2023-01-07T23:14:23.561Z,43.60
2023-01-07T23:16:52.903Z,44.03
2023-01-07T23:19:22.741Z,45.27
2023-01-07T23:21:53.434Z,48.40
2023-01-07T23:24:22.167Z,46.00
2023-01-07T23:26:52.303Z,38.60
2023-01-07T23:29:22.600Z,48.93
2023-01-07T23:31:51.509Z,51.23
2023-01-07T23:34:19.818Z,44.83
2023-01-07T23:36:48.201Z,42.20
2023-01-07T23:39:16.668Z,48.80
2023-01-07T23:41:45.807Z,45.67
2023-01-07T23:44:14.296Z,41.60
2023-01-07T23:46:44.075Z,46.77
2023-01-07T23:49:12.511Z,43.57
2023-01-07T23:51:41.810Z,40.90
2023-01-07T23:54:10.621Z,37.57
2023-01-07T23:56:39.006Z,43.37
2023-01-07T23:59:07.719Z,37.27
